Nearby METAR Reports

 

KMTN - Baltimore/Martin, Maryland, USA
Distance from station: SSE 8mi, 13km
Updated: Wed, 22-Oct-2014 6:45pm EDT
Mostly cloudy
Mostly cloudy
 Wind from NW
Wind: NW 10 mph , 17 km/h, Gust: 22 mph , 35 km/h
Temperature: 55°F , 13°C
Dew Point: 50°F , 10°C
Humidity: 82%
Barometer: 29.92 inHg , 1013.2 hPa
Clouds: Mostly cloudy
Visibility: 10 miles , 16 km
Cloud details: Mostly cloudy 4000 ft
Mostly cloudy 7000 ft
2014/10/22 22:45 KMTN 222245Z 32009G19KT 10SM BKN040 BKN070 13/10 A2992
KDMH - Baltimore/Dwntwn, Maryland, USA
Distance from station: SW 12mi, 19km
Updated: Wed, 22-Oct-2014 6:54pm EDT

 
Temperature: 55°F , 13°C
Dew Point: 46°F , 8°C
Humidity: 72%
Barometer: 29.91 inHg , 1012.9 hPa
2014/10/22 22:54 KDMH 222254Z AUTO 13/08 A2991 RMK AO1 SLP126 T01330078
 
KBWI - Balto/Wash Intl, Maryland, USA
Distance from station: SSW 20mi, 33km
Updated: Wed, 22-Oct-2014 6:54pm EDT
Light rain, Overcast
Light rain, Overcast
 Wind from NNW
Wind: NNW 9 mph , 15 km/h, Gust: 18 mph , 30 km/h
Temperature: 54°F , 12°C
Dew Point: 46°F , 8°C
Humidity: 77%
Barometer: 29.91 inHg , 1012.9 hPa
Summary: Light rain
Clouds: Overcast
Visibility: 10 miles , 16 km
Cloud details: Few Clouds 3200 ft
Partly cloudy 5500 ft
Overcast 7000 ft
2014/10/22 22:54 KBWI 222254Z 33008G16KT 10SM -RA FEW032 SCT055 OVC070 12/08 A2991 RMK AO2 RAE2155B18E32B52 SLP128 P0000 T01220083
KDMW - Carroll Cnty, Maryland, USA
Distance from station: WNW 30mi, 48km
Updated: Wed, 22-Oct-2014 6:50pm EDT
Overcast
Overcast
 Wind from NNW
Wind: NNW 9 mph , 15 km/h, Gust: 16 mph , 26 km/h
Temperature: 52°F , 11°C
Dew Point: 48°F , 9°C
Humidity: 88%
Barometer: 29.95 inHg , 1014.2 hPa
Clouds: Overcast
Visibility: 10 miles , 16 km
Cloud details: Overcast 2700 ft
2014/10/22 22:50 KDMW 222250Z AUTO 34008G14KT 10SM OVC027 11/09 A2995 RMK AO2 LTG DSNT E
 
KNAK - Annapolis/Naval, Maryland, USA
Distance from station: S 30mi, 48km
Updated: Wed, 22-Oct-2014 6:54pm EDT
Light rain, Overcast
Light rain, Overcast
 Wind from NNW
Wind: NNW 18 mph , 30 km/h, Gust: 23 mph , 37 km/h
Temperature: 55°F , 13°C
Dew Point: 48°F , 9°C
Humidity: 77%
Barometer: 29.90 inHg , 1012.5 hPa
Summary: Light rain
Clouds: Overcast
Visibility: 10 miles , 16 km
Cloud details: Mostly cloudy 4400 ft
Overcast 6000 ft
2014/10/22 22:54 KNAK 222254Z AUTO 33016G20KT 10SM -RA BKN044 OVC060 13/09 A2990 RMK AO2 SLP128 P0001 T01280094
KW29 - Stevensville, Maryland, USA
Distance from station: SSE 31mi, 50km
Updated: Wed, 22-Oct-2014 6:52pm EDT
Light rain
Light rain
 Wind from NNW
Wind: NNW 18 mph , 30 km/h, Gust: 35 mph , 56 km/h
Temperature: 54°F , 12°C
Dew Point: 48°F , 9°C
Humidity: 82%
Barometer: 29.89 inHg , 1012.2 hPa
Summary: Light rain
Visibility: 10 miles , 16 km
2014/10/22 22:52 KW29 222252Z AUTO 33016G30KT 10SM -RA 12/09 A2989 RMK AO1 LTG DSNT E
 
KCGS - College Park, Maryland, USA
Distance from station: SW 38mi, 61km
Updated: Wed, 22-Oct-2014 6:50pm EDT
Overcast
Overcast
 Wind from NNW
Wind: NNW 9 mph , 15 km/h, Gust: 17 mph , 28 km/h
Temperature: 55°F , 13°C
Dew Point: 48°F , 9°C
Humidity: 77%
Barometer: 29.92 inHg , 1013.2 hPa
Clouds: Overcast
Visibility: 10 miles , 16 km
Cloud details: Partly cloudy 4100 ft
Mostly cloudy 4900 ft
Overcast 6000 ft
2014/10/22 22:50 KCGS 222250Z AUTO 33008G15KT 10SM SCT041 BKN049 OVC060 13/09 A2992 RMK AO1
KGAI - Gaithersburg, Maryland, USA
Distance from station: WSW 40mi, 65km
Updated: Wed, 22-Oct-2014 6:55pm EDT
Mostly cloudy
Mostly cloudy
 Wind from NW
Wind: NW 8 mph , 13 km/h
Temperature: 54°F , 12°C
Dew Point: 46°F , 8°C
Humidity: 77%
Barometer: 29.98 inHg , 1015.2 hPa
Clouds: Mostly cloudy
Visibility: 10 miles , 16 km
Cloud details: Partly cloudy 3600 ft
Mostly cloudy 5000 ft
2014/10/22 22:55 KGAI 222255Z 32007KT 10SM SCT036 BKN050 12/08 A2998 RMK AO1
 
KTHV - York, Pennsylvania, USA
Distance from station: NNW 40mi, 65km
Updated: Wed, 22-Oct-2014 6:53pm EDT
Overcast
Overcast
 Wind from NNW
Wind: NNW 14 mph , 22 km/h, Gust: 18 mph , 30 km/h
Temperature: 54°F , 12°C
Dew Point: 45°F , 7°C
Humidity: 72%
Barometer: 29.96 inHg , 1014.6 hPa
Clouds: Overcast
Visibility: 10 miles , 16 km
Cloud details: Overcast 2700 ft
2014/10/22 22:53 KTHV 222253Z AUTO 34012G16KT 10SM OVC027 12/07 A2996 RMK AO2 SLP147 T01220067
KFDK - Frederick, Maryland, USA
Distance from station: W 47mi, 75km
Updated: Wed, 22-Oct-2014 6:55pm EDT
Overcast
Overcast
 Wind from N
Wind: N 9 mph , 15 km/h
Temperature: 61°F , 16°C
Dew Point: 45°F , 7°C
Humidity: 55%
Barometer: 29.99 inHg , 1015.6 hPa
Clouds: Overcast
Visibility: 10 miles , 16 km
Cloud details: Overcast 3700 ft
2014/10/22 22:55 KFDK 222255Z 35008KT 10SM OVC037 16/07 A2999
 
KESN - Easton/Newnam, Maryland, USA
Distance from station: SSE 48mi, 78km
Updated: Wed, 22-Oct-2014 6:50pm EDT
Light drizzle, Overcast
Light drizzle, Overcast
 Wind from N
Wind: N 12 mph , 19 km/h, Gust: 21 mph , 33 km/h
Temperature: 55°F , 13°C
Dew Point: 55°F , 13°C
Humidity: 100%
Barometer: 29.91 inHg , 1012.9 hPa
Summary: Light Drizzle
Clouds: Overcast
Visibility: 7 miles , 11 km
Cloud details: Mostly cloudy 1800 ft
Overcast 3100 ft
2014/10/22 22:50 KESN 222250Z 35010G18KT 7SM -DZ BKN018 OVC031 13/13 A2991
KDCA - Washington/Natl, Washington D.c., USA
Distance from station: SW 49mi, 79km
Updated: Wed, 22-Oct-2014 6:52pm EDT
Overcast
Overcast
 Wind from NNW
Wind: NNW 13 mph , 20 km/h, Gust: 21 mph , 33 km/h
Temperature: 57°F , 14°C
Dew Point: 48°F , 9°C
Humidity: 72%
Barometer: 29.94 inHg , 1013.9 hPa
Clouds: Overcast
Visibility: 10 miles , 16 km
Cloud details: Few Clouds 3100 ft
Overcast 4200 ft
2014/10/22 22:52 KDCA 222252Z 33011G18KT 10SM FEW031 OVC042 14/09 A2994 RMK AO2 SLP137 T01440089
 
KLNS - Lancaster, Pennsylvania, USA
Distance from station: N 49mi, 79km
Updated: Wed, 22-Oct-2014 6:53pm EDT
Overcast
Overcast
 Wind from NNW
Wind: NNW 9 mph , 15 km/h, Gust: 23 mph , 37 km/h
Temperature: 54°F , 12°C
Dew Point: 45°F , 7°C
Humidity: 72%
Barometer: 29.93 inHg , 1013.5 hPa
Clouds: Overcast
Visibility: 10 miles , 16 km
Cloud details: Overcast 2400 ft
2014/10/22 22:53 KLNS 222253Z 33008G20KT 10SM OVC024 12/07 A2993 RMK AO2 PK WND 36027/2155 SLP134 T01170072
KILG - Wilmington, Delaware, USA
Distance from station: ENE 50mi, 81km
Updated: Wed, 22-Oct-2014 6:51pm EDT
Overcast
Overcast
 Wind from NNW
Wind: NNW 16 mph , 26 km/h, Gust: 22 mph , 35 km/h
Temperature: 55°F , 13°C
Dew Point: 50°F , 10°C
Humidity: 82%
Barometer: 29.87 inHg , 1011.5 hPa
Clouds: Overcast
Visibility: 10 miles , 16 km
Cloud details: Overcast 3600 ft
2014/10/22 22:51 KILG 222251Z 33014G19KT 10SM OVC036 13/10 A2987 RMK AO2 RAB19E49 SLP113 P0000 T01280100